createdAt,value
2022-08-17T00:01:52.520Z,6.90
2022-08-17T00:04:23.207Z,6.40
2022-08-17T00:06:53.496Z,6.93
2022-08-17T00:09:23.747Z,8.73
2022-08-17T00:12:03.928Z,6.90
2022-08-17T00:14:46.457Z,7.13
2022-08-17T00:17:16.574Z,6.53
2022-08-17T00:19:47.101Z,9.15
2022-08-17T00:22:31.004Z,6.70
2022-08-17T00:25:07.504Z,7.00
2022-08-17T00:27:38.564Z,9.65
2022-08-17T00:30:14.766Z,6.22
2022-08-17T00:33:12.121Z,6.82
2022-08-17T00:35:37.953Z,6.18
2022-08-17T00:38:10.018Z,6.57
2022-08-17T00:40:44.969Z,6.35
2022-08-17T00:43:21.367Z,6.05
2022-08-17T00:45:54.238Z,6.30
2022-08-17T00:48:29.293Z,5.83
2022-08-17T00:53:56.490Z,7.95
2022-08-17T00:56:32.512Z,7.85
2022-08-17T00:59:14.568Z,7.05
2022-08-17T01:01:48.053Z,7.55
2022-08-17T01:04:19.667Z,6.28
2022-08-17T01:06:50.947Z,6.88
2022-08-17T01:09:21.782Z,7.00
2022-08-17T01:11:52.808Z,7.25
2022-08-17T01:14:23.338Z,6.80
2022-08-17T01:16:58.493Z,6.55
2022-08-17T01:19:32.387Z,6.30
2022-08-17T01:22:09.376Z,6.85
2022-08-17T01:24:45.057Z,7.28
2022-08-17T01:27:16.570Z,7.13
2022-08-17T01:29:53.270Z,7.53
2022-08-17T01:32:23.477Z,7.28
2022-08-17T01:34:53.568Z,6.72
2022-08-17T01:37:33.344Z,6.32
2022-08-17T01:40:12.561Z,7.60
2022-08-17T01:42:49.827Z,9.38
2022-08-17T01:45:23.322Z,6.72
2022-08-17T01:47:54.807Z,6.78
2022-08-17T01:50:28.527Z,6.80
2022-08-17T01:53:02.509Z,7.10
2022-08-17T01:55:41.168Z,6.45
2022-08-17T01:58:11.362Z,7.35
2022-08-17T02:00:52.407Z,6.28
2022-08-17T02:03:32.875Z,7.70
2022-08-17T02:06:05.237Z,8.02
2022-08-17T02:08:36.974Z,7.20
2022-08-17T02:11:15.857Z,6.65
2022-08-17T02:13:46.514Z,7.10
2022-08-17T02:16:16.996Z,6.45
2022-08-17T02:18:47.425Z,6.38
2022-08-17T02:21:17.698Z,6.97
2022-08-17T02:23:50.745Z,7.50
2022-08-17T02:26:25.814Z,6.88
2022-08-17T02:28:57.116Z,6.47
2022-08-17T02:31:27.227Z,6.72
2022-08-17T02:34:04.141Z,7.82
2022-08-17T02:36:39.177Z,7.45
2022-08-17T02:39:11.933Z,8.15
2022-08-17T02:41:45.143Z,8.32
2022-08-17T02:44:15.302Z,7.82
2022-08-17T02:47:05.544Z,6.78
2022-08-17T02:49:35.722Z,8.68
2022-08-17T02:52:06.802Z,8.68
2022-08-17T02:54:41.099Z,9.18
2022-08-17T02:57:14.712Z,8.88
2022-08-17T02:59:49.071Z,9.00
2022-08-17T03:02:19.463Z,6.88
2022-08-17T03:04:49.499Z,10.18
2022-08-17T03:07:20.468Z,7.57
2022-08-17T03:09:54.084Z,7.82
2022-08-17T03:12:26.854Z,7.88
2022-08-17T03:14:56.926Z,7.95
2022-08-17T03:17:27.144Z,10.35
2022-08-17T03:19:59.697Z,7.85
2022-08-17T03:22:37.357Z,11.18
2022-08-17T03:25:11.087Z,9.82
2022-08-17T03:27:44.664Z,8.57
2022-08-17T03:30:22.792Z,9.05
2022-08-17T03:32:55.357Z,8.10
2022-08-17T03:35:28.132Z,10.20
2022-08-17T03:38:00.238Z,8.88
2022-08-17T03:40:55.677Z,12.93
2022-08-17T03:43:26.012Z,7.93
2022-08-17T03:46:08.637Z,8.02
2022-08-17T03:49:10.211Z,9.90
2022-08-17T03:51:52.777Z,9.80
2022-08-17T03:54:35.270Z,10.00
2022-08-17T03:57:07.371Z,7.78
2022-08-17T03:59:42.224Z,8.30
2022-08-17T04:02:18.578Z,9.60
2022-08-17T04:04:51.023Z,9.68
2022-08-17T04:07:22.277Z,10.02
2022-08-17T04:09:53.245Z,10.18
2022-08-17T04:12:31.166Z,7.63
2022-08-17T04:15:04.044Z,11.32
2022-08-17T04:17:34.977Z,8.63
2022-08-17T04:20:13.637Z,8.77
2022-08-17T04:22:58.687Z,9.27
2022-08-17T04:25:30.129Z,9.13
2022-08-17T04:28:00.342Z,9.63
2022-08-17T04:30:34.977Z,8.43
2022-08-17T04:33:08.892Z,8.45
2022-08-17T04:35:41.598Z,8.95
2022-08-17T04:38:14.232Z,7.60
2022-08-17T04:40:57.498Z,7.93
2022-08-17T04:43:29.181Z,9.70
2022-08-17T04:46:03.752Z,7.35
2022-08-17T04:48:40.963Z,9.55
2022-08-17T04:51:14.047Z,9.95
2022-08-17T04:53:45.976Z,8.65
2022-08-17T04:56:28.747Z,9.65
2022-08-17T04:59:00.994Z,9.85
2022-08-17T05:01:37.061Z,10.45
2022-08-17T05:04:20.994Z,8.32
2022-08-17T05:07:00.547Z,7.43
2022-08-17T05:09:31.118Z,8.82
2022-08-17T05:12:03.669Z,8.80
2022-08-17T05:14:34.010Z,9.93
2022-08-17T05:17:09.648Z,8.63
2022-08-17T05:19:41.899Z,9.55
2022-08-17T05:22:12.041Z,10.27
2022-08-17T05:24:43.717Z,8.50
2022-08-17T05:27:24.098Z,8.38
2022-08-17T05:29:58.745Z,9.32
2022-08-17T05:32:37.951Z,9.57
2022-08-17T05:35:11.089Z,12.57
2022-08-17T05:37:41.314Z,9.45
2022-08-17T05:40:13.409Z,7.85
2022-08-17T05:42:44.031Z,9.38
2022-08-17T05:45:15.859Z,8.35
2022-08-17T05:47:56.423Z,8.57
2022-08-17T05:50:31.559Z,11.90
2022-08-17T05:53:08.987Z,11.90
2022-08-17T05:55:48.260Z,9.10
2022-08-17T05:58:27.495Z,10.38
2022-08-17T06:01:05.219Z,8.02
2022-08-17T06:03:55.113Z,9.88
2022-08-17T06:06:38.078Z,9.65
2022-08-17T06:09:28.865Z,11.63
2022-08-17T06:12:14.476Z,8.68
2022-08-17T06:15:04.295Z,7.07
2022-08-17T06:17:37.506Z,15.30
2022-08-17T06:20:16.851Z,10.45
2022-08-17T06:22:52.728Z,8.85
2022-08-17T06:25:32.599Z,8.00
2022-08-17T06:28:07.482Z,9.48
2022-08-17T06:31:00.836Z,8.43
2022-08-17T06:36:23.689Z,10.70
2022-08-17T06:39:06.119Z,8.32
2022-08-17T06:41:45.853Z,9.35
2022-08-17T06:44:50.204Z,8.07
2022-08-17T06:47:15.837Z,8.15
2022-08-17T06:50:07.255Z,9.35
2022-08-17T06:52:48.161Z,13.23
2022-08-17T06:55:24.057Z,8.63
2022-08-17T06:58:05.815Z,7.35
2022-08-17T07:00:48.832Z,6.63
2022-08-17T07:03:31.782Z,7.63
2022-08-17T07:06:08.326Z,6.78
2022-08-17T07:08:51.474Z,10.77
2022-08-17T07:11:28.482Z,9.90
2022-08-17T07:14:07.413Z,7.55
2022-08-17T07:16:44.117Z,7.65
2022-08-17T07:19:16.941Z,8.30
2022-08-17T07:21:56.633Z,7.43
2022-08-17T07:24:39.348Z,7.43
2022-08-17T07:27:17.376Z,7.60
2022-08-17T07:29:53.777Z,8.10
2022-08-17T07:32:31.691Z,8.02
2022-08-17T07:35:17.942Z,9.70
2022-08-17T07:37:54.210Z,8.43
2022-08-17T07:40:39.605Z,9.65
2022-08-17T07:43:29.629Z,8.25
2022-08-17T07:46:35.362Z,8.63
2022-08-17T07:49:35.418Z,8.75
2022-08-17T07:52:47.613Z,8.82
2022-08-17T07:54:59.211Z,7.70
2022-08-17T07:57:40.760Z,10.07
2022-08-17T08:00:31.658Z,7.00
2022-08-17T08:03:17.674Z,7.50
2022-08-17T08:05:54.645Z,11.02
2022-08-17T08:08:29.835Z,8.27
2022-08-17T08:11:11.479Z,9.98
2022-08-17T08:13:46.348Z,10.65
2022-08-17T08:16:24.545Z,10.07
2022-08-17T08:18:59.974Z,9.63
2022-08-17T08:21:49.429Z,9.82
2022-08-17T08:24:48.487Z,8.00
2022-08-17T08:27:30.669Z,8.85
2022-08-17T08:32:54.347Z,7.30
2022-08-17T08:35:34.416Z,11.10
2022-08-17T08:38:17.467Z,8.93
2022-08-17T08:43:40.510Z,9.20
2022-08-17T08:46:26.551Z,14.65
2022-08-17T08:50:01.276Z,9.75
2022-08-17T08:52:37.769Z,8.40
2022-08-17T08:55:19.744Z,8.05
2022-08-17T08:57:58.373Z,7.72
2022-08-17T09:00:34.610Z,9.30
2022-08-17T09:03:51.836Z,9.38
2022-08-17T09:06:39.356Z,10.48
2022-08-17T09:09:26.403Z,8.15
2022-08-17T09:12:05.179Z,9.00
2022-08-17T09:14:46.610Z,10.70
2022-08-17T09:17:22.066Z,8.00
2022-08-17T09:20:01.035Z,8.00
2022-08-17T09:22:38.623Z,7.10
2022-08-17T09:25:13.515Z,10.13
2022-08-17T09:28:03.759Z,11.10
2022-08-17T09:30:41.931Z,9.93
2022-08-17T09:33:14.388Z,8.85
2022-08-17T09:35:51.320Z,9.43
2022-08-17T09:38:31.830Z,10.30
2022-08-17T09:41:16.666Z,13.38
2022-08-17T09:43:55.713Z,9.15
2022-08-17T09:46:31.571Z,11.60
2022-08-17T09:49:09.863Z,8.13
2022-08-17T09:51:48.746Z,7.65
2022-08-17T09:54:39.508Z,8.75
2022-08-17T09:57:32.151Z,12.73
2022-08-17T10:00:20.093Z,8.73
2022-08-17T10:03:18.106Z,7.57
2022-08-17T10:05:56.888Z,9.82
2022-08-17T10:08:42.210Z,7.70
2022-08-17T10:11:22.523Z,12.02
2022-08-17T10:14:36.429Z,10.10
2022-08-17T10:17:11.331Z,9.35
2022-08-17T10:19:50.894Z,9.85
2022-08-17T10:22:41.259Z,8.13
2022-08-17T10:25:53.479Z,8.00
2022-08-17T10:28:29.433Z,8.93
2022-08-17T10:31:33.201Z,10.13
2022-08-17T10:34:21.345Z,8.45
2022-08-17T10:36:58.814Z,8.80
2022-08-17T10:39:51.932Z,9.77
2022-08-17T10:42:33.374Z,8.85
2022-08-17T10:45:08.377Z,9.27
2022-08-17T10:48:06.150Z,7.78
2022-08-17T10:50:50.646Z,9.07
2022-08-17T10:53:52.467Z,11.38
2022-08-17T10:56:28.178Z,8.95
2022-08-17T10:59:02.676Z,12.25
2022-08-17T11:02:03.358Z,8.32
2022-08-17T11:04:50.147Z,10.13
2022-08-17T11:07:28.587Z,11.82
2022-08-17T11:10:18.664Z,8.00
2022-08-17T11:12:57.178Z,9.10
2022-08-17T11:15:45.257Z,8.80
2022-08-17T11:18:35.907Z,9.80
2022-08-17T11:21:21.258Z,10.60
2022-08-17T11:24:16.730Z,10.00
2022-08-17T11:27:01.718Z,9.52
2022-08-17T11:29:36.900Z,8.55
2022-08-17T11:32:30.227Z,8.70
2022-08-17T11:35:13.753Z,12.88
2022-08-17T11:37:59.135Z,11.70
2022-08-17T11:41:05.536Z,12.38
2022-08-17T11:43:57.925Z,9.25
2022-08-17T11:46:57.197Z,8.60
2022-08-17T11:49:52.366Z,10.63
2022-08-17T11:52:39.051Z,9.55
2022-08-17T11:55:34.474Z,9.13
2022-08-17T11:58:06.531Z,7.90
2022-08-17T12:00:56.656Z,10.77
2022-08-17T12:03:54.479Z,9.15
2022-08-17T12:06:57.012Z,8.48
2022-08-17T12:09:31.570Z,8.95
2022-08-17T12:12:13.335Z,10.43
2022-08-17T12:17:42.939Z,10.38
2022-08-17T12:22:57.731Z,13.52
2022-08-17T12:25:35.853Z,10.68
2022-08-17T12:28:23.909Z,11.25
2022-08-17T12:30:55.298Z,10.48
2022-08-17T12:33:28.963Z,9.13
2022-08-17T12:36:03.097Z,9.00
2022-08-17T12:38:38.869Z,11.77
2022-08-17T12:41:25.679Z,9.07
2022-08-17T12:44:02.506Z,10.68
2022-08-17T12:46:36.419Z,10.18
2022-08-17T12:49:25.683Z,8.75
2022-08-17T12:52:14.061Z,8.75
2022-08-17T12:54:52.711Z,9.88
2022-08-17T12:57:25.291Z,11.23
2022-08-17T13:00:01.362Z,11.38
2022-08-17T13:02:49.348Z,10.85
2022-08-17T13:05:25.899Z,8.63
2022-08-17T13:07:57.432Z,10.02
2022-08-17T13:10:34.043Z,9.88
2022-08-17T13:13:06.308Z,11.48
2022-08-17T13:15:46.170Z,9.57
2022-08-17T13:18:39.130Z,9.88
2022-08-17T13:21:14.051Z,10.85
2022-08-17T13:23:53.555Z,9.00
2022-08-17T13:26:32.686Z,9.50
2022-08-17T13:29:04.019Z,12.77
2022-08-17T13:31:52.413Z,8.50
2022-08-17T13:35:11.553Z,9.95
2022-08-17T13:37:33.829Z,9.57
2022-08-17T13:40:22.600Z,8.63
2022-08-17T13:42:56.982Z,9.68
2022-08-17T13:45:50.634Z,9.02
2022-08-17T13:48:28.087Z,9.30
2022-08-17T13:51:16.460Z,12.50
2022-08-17T13:54:10.662Z,9.38
2022-08-17T13:56:48.322Z,9.43
2022-08-17T13:59:54.317Z,9.88
2022-08-17T14:02:28.792Z,9.48
2022-08-17T14:05:02.019Z,11.93
2022-08-17T14:07:38.725Z,8.07
2022-08-17T14:10:14.480Z,8.95
2022-08-17T14:12:46.990Z,7.97
2022-08-17T14:15:22.568Z,7.88
2022-08-17T14:17:53.283Z,8.27
2022-08-17T14:20:25.341Z,9.02
2022-08-17T14:22:57.315Z,8.15
2022-08-17T14:25:30.483Z,7.90
2022-08-17T14:28:01.437Z,9.32
2022-08-17T14:30:35.772Z,7.38
2022-08-17T14:33:06.111Z,7.85
2022-08-17T14:35:36.754Z,9.73
2022-08-17T14:38:06.911Z,8.40
2022-08-17T14:40:40.043Z,8.68
2022-08-17T14:43:10.296Z,7.43
2022-08-17T14:45:43.008Z,8.20
2022-08-17T14:48:13.443Z,6.85
2022-08-17T14:50:46.382Z,7.45
2022-08-17T14:53:21.649Z,7.57
2022-08-17T14:55:53.364Z,8.32
2022-08-17T14:58:23.769Z,7.23
2022-08-17T15:00:56.874Z,9.02
2022-08-17T15:03:27.181Z,7.53
2022-08-17T15:05:57.460Z,9.48
2022-08-17T15:08:27.910Z,6.68
2022-08-17T15:10:58.191Z,7.55
2022-08-17T15:13:32.083Z,5.40
2022-08-17T15:16:13.911Z,6.65
2022-08-17T15:18:44.111Z,5.60
2022-08-17T15:21:15.036Z,6.10
2022-08-17T15:23:45.336Z,4.93
2022-08-17T15:26:16.995Z,5.20
2022-08-17T15:28:48.986Z,5.63
2022-08-17T15:31:32.378Z,6.25
2022-08-17T15:34:04.172Z,7.43
2022-08-17T15:36:49.154Z,6.75
2022-08-17T15:39:19.802Z,6.30
2022-08-17T15:41:58.508Z,6.07
2022-08-17T15:44:32.503Z,5.75
2022-08-17T15:47:08.581Z,5.70
2022-08-17T15:49:41.997Z,10.93
2022-08-17T15:52:19.660Z,5.80
2022-08-17T15:54:53.175Z,6.28
2022-08-17T15:57:24.192Z,6.32
2022-08-17T15:59:58.498Z,6.43
2022-08-17T16:03:46.814Z,6.07
2022-08-17T16:05:30.182Z,7.65
2022-08-17T16:08:02.430Z,6.35
2022-08-17T16:10:34.747Z,6.00
2022-08-17T16:15:56.989Z,6.57
2022-08-17T16:18:32.639Z,5.55
2022-08-17T16:21:24.576Z,6.15
2022-08-17T16:23:56.728Z,6.82
2022-08-17T16:26:27.594Z,7.03
2022-08-17T16:28:58.652Z,6.50
2022-08-17T16:31:29.152Z,6.85
2022-08-17T16:34:17.670Z,7.50
2022-08-17T16:36:53.560Z,8.23
2022-08-17T16:39:27.026Z,6.75
2022-08-17T16:41:57.671Z,8.38
2022-08-17T16:44:30.542Z,8.40
2022-08-17T16:47:02.003Z,8.35
2022-08-17T16:49:36.874Z,9.90
2022-08-17T16:52:10.831Z,6.72
2022-08-17T16:54:44.080Z,8.77
2022-08-17T16:57:16.082Z,7.57
2022-08-17T16:59:51.599Z,7.67
2022-08-17T17:02:28.698Z,6.85
2022-08-17T17:05:06.189Z,7.53
2022-08-17T17:07:51.893Z,8.43
2022-08-17T17:10:26.474Z,9.15
2022-08-17T17:13:02.006Z,9.70
2022-08-17T17:15:51.830Z,10.15
2022-08-17T17:18:26.018Z,10.75
2022-08-17T17:21:01.273Z,15.32
2022-08-17T17:23:48.013Z,15.82
2022-08-17T17:26:31.854Z,17.98
2022-08-17T17:29:47.364Z,13.57
2022-08-17T17:32:23.313Z,14.57
2022-08-17T17:34:59.557Z,12.88
2022-08-17T17:37:37.295Z,16.33
2022-08-17T17:40:15.518Z,14.88
2022-08-17T17:42:47.244Z,11.40
2022-08-17T17:45:23.490Z,10.00
2022-08-17T17:47:53.779Z,8.90
2022-08-17T17:50:32.531Z,7.90
2022-08-17T17:53:09.023Z,9.32
2022-08-17T17:55:50.086Z,10.88
2022-08-17T17:58:35.861Z,10.75
2022-08-17T18:01:20.763Z,7.95
2022-08-17T18:04:15.667Z,11.27
2022-08-17T18:07:04.539Z,13.10
2022-08-17T18:10:01.143Z,11.00
2022-08-17T18:12:39.125Z,12.02
2022-08-17T18:15:29.630Z,10.35
2022-08-17T18:18:37.978Z,11.70
2022-08-17T18:21:15.919Z,12.00
2022-08-17T18:23:55.359Z,14.85
2022-08-17T18:26:45.023Z,10.80
2022-08-17T18:29:23.985Z,12.15
2022-08-17T18:32:16.043Z,12.77
2022-08-17T18:34:48.719Z,8.02
2022-08-17T18:37:34.395Z,8.90
2022-08-17T18:40:29.696Z,11.43
2022-08-17T18:43:14.235Z,8.80
2022-08-17T18:45:48.528Z,11.55
2022-08-17T18:48:33.135Z,9.25
2022-08-17T18:51:39.707Z,8.38
2022-08-17T18:54:19.013Z,8.30
2022-08-17T18:56:55.218Z,8.00
2022-08-17T18:59:42.510Z,7.97
2022-08-17T19:02:45.657Z,9.20
2022-08-17T19:05:30.493Z,9.40
2022-08-17T19:08:20.606Z,9.32
2022-08-17T19:10:54.605Z,9.50
2022-08-17T19:13:28.625Z,9.43
2022-08-17T19:16:14.104Z,9.73
2022-08-17T19:18:52.108Z,8.88
2022-08-17T19:21:26.843Z,11.98
2022-08-17T19:24:01.985Z,8.80
2022-08-17T19:26:53.662Z,10.20
2022-08-17T19:32:02.744Z,10.13
2022-08-17T19:34:35.710Z,10.88
2022-08-17T19:37:09.736Z,9.32
2022-08-17T19:39:59.705Z,11.18
2022-08-17T19:42:42.560Z,10.25
2022-08-17T19:45:36.151Z,8.50
2022-08-17T19:48:17.477Z,9.48
2022-08-17T19:50:56.460Z,11.55
2022-08-17T19:54:04.347Z,11.77
2022-08-17T19:56:43.305Z,10.70
2022-08-17T19:59:25.490Z,10.77
2022-08-17T20:02:01.096Z,10.32
2022-08-17T20:04:42.250Z,9.27
2022-08-17T20:07:18.079Z,9.68
2022-08-17T20:09:54.667Z,12.57
2022-08-17T20:12:31.039Z,8.70
2022-08-17T20:15:07.481Z,9.88
2022-08-17T20:17:41.939Z,13.05
2022-08-17T20:20:31.488Z,10.38
2022-08-17T20:23:09.718Z,10.27
2022-08-17T20:25:48.016Z,10.20
2022-08-17T20:28:25.344Z,13.07
2022-08-17T20:30:55.710Z,11.65
2022-08-17T20:33:29.045Z,10.73
2022-08-17T20:38:52.146Z,10.65
2022-08-17T20:41:24.408Z,10.82
2022-08-17T20:44:06.473Z,11.45
2022-08-17T20:46:54.707Z,11.63
2022-08-17T20:49:30.027Z,8.90
2022-08-17T20:52:10.004Z,10.23
2022-08-17T20:54:52.972Z,10.35
2022-08-17T20:57:50.149Z,10.57
2022-08-17T21:00:50.260Z,11.75
2022-08-17T21:03:52.086Z,12.45
2022-08-17T21:06:25.491Z,11.30
2022-08-17T21:09:01.888Z,11.18
2022-08-17T21:12:02.814Z,10.13
2022-08-17T21:14:43.766Z,13.15
2022-08-17T21:17:38.584Z,9.93
2022-08-17T21:20:17.680Z,12.48
2022-08-17T21:23:03.316Z,10.15
2022-08-17T21:26:00.168Z,9.15
2022-08-17T21:29:01.117Z,11.75
2022-08-17T21:31:37.695Z,11.48
2022-08-17T21:34:29.404Z,10.40
2022-08-17T21:37:34.944Z,11.30
2022-08-17T21:40:26.253Z,10.68
2022-08-17T21:42:59.146Z,10.05
2022-08-17T21:45:35.147Z,12.20
2022-08-17T21:48:15.658Z,9.82
2022-08-17T21:50:47.733Z,13.68
2022-08-17T21:53:33.041Z,12.25
2022-08-17T21:56:03.869Z,12.13
2022-08-17T21:58:40.399Z,11.07
2022-08-17T22:01:24.485Z,13.88
2022-08-17T22:04:01.333Z,12.68
2022-08-17T22:06:36.013Z,12.50
2022-08-17T22:09:17.828Z,12.50
2022-08-17T22:12:00.824Z,12.38
2022-08-17T22:14:52.198Z,9.20
2022-08-17T22:17:26.674Z,10.10
2022-08-17T22:19:59.412Z,9.85
2022-08-17T22:22:57.289Z,9.75
2022-08-17T22:25:31.520Z,11.77
2022-08-17T22:28:04.158Z,10.73
2022-08-17T22:30:39.928Z,11.15
2022-08-17T22:33:39.745Z,13.75
2022-08-17T22:36:25.648Z,11.40
2022-08-17T22:38:58.090Z,14.45
2022-08-17T22:41:41.289Z,12.43
2022-08-17T22:44:19.031Z,13.10
2022-08-17T22:46:59.625Z,13.48
2022-08-17T22:49:34.298Z,11.43
2022-08-17T22:52:08.025Z,13.07
2022-08-17T22:54:50.514Z,12.13
2022-08-17T22:57:39.313Z,12.98
2022-08-17T23:00:31.595Z,10.45
2022-08-17T23:03:20.559Z,12.52
2022-08-17T23:06:05.044Z,11.25
2022-08-17T23:08:38.528Z,10.93
2022-08-17T23:13:42.399Z,13.00
2022-08-17T23:16:13.481Z,10.65
2022-08-17T23:18:43.761Z,12.68
2022-08-17T23:21:13.901Z,10.07
2022-08-17T23:23:55.952Z,12.57
2022-08-17T23:26:27.816Z,9.70
2022-08-17T23:29:04.443Z,12.40
2022-08-17T23:31:39.107Z,11.23
2022-08-17T23:34:13.061Z,12.45
2022-08-17T23:36:52.546Z,14.05
2022-08-17T23:39:28.089Z,10.48
2022-08-17T23:41:59.221Z,12.68
2022-08-17T23:44:32.843Z,12.20
2022-08-17T23:49:36.225Z,11.27
2022-08-17T23:52:12.747Z,11.45
2022-08-17T23:54:47.237Z,14.25
2022-08-17T23:57:19.415Z,10.38
2022-08-17T23:59:52.433Z,10.75
